Time;durP1;ratioP1;P1;durP2;ratioP2;P2;SDS_P1;SDS_P2;PMS_P1;PMS_P2;Temp;Humidity;BMP_temperature;BMP_pressure;BME280_temperature;BME280_humidity;BME280_pressure;Samples;Min_cycle;Max_cycle;Signal;HPM_P1;HPM_P2
2023/04/16 15:23:17;;;;;;;5.80;2.28;;;;;;;;;;2505253;22;2283449;-89
2023/04/16 15:24:23;;;;;;;3.50;1.77;;;;;;;;;;2593107;22;20042;-91
2023/04/16 15:25:28;;;;;;;5.47;2.60;;;;;;;;;;2488929;23;20014;-92
2023/04/16 15:29:10;;;;;;;5.38;1.70;;;;;;;;;;2534261;23;20013;-92
2023/04/16 15:31:05;;;;;;;6.97;2.95;;;;;;;;;;2428160;23;20099;-94
2023/04/16 15:33:02;;;;;;;8.02;2.38;;;;;;;;;;2030967;23;52536135;-90
2023/04/16 15:34:02;;;;;;;;;;;;;;;;;;2347712;23;4426006;-90
2023/04/16 15:35:04;;;;;;;6.63;2.57;;;;;;;;;;2550585;23;19966;-89
2023/04/16 15:38:04;;;;;;;4.93;3.20;;;;;;;;;;2549681;23;20004;-91
2023/04/16 15:39:50;;;;;;;6.65;2.22;;;;;;;;;;2553709;23;20071;-93
2023/04/16 15:40:53;;;;;;;7.32;3.05;;;;;;;;;;2548359;23;20064;-91
2023/04/16 15:41:56;;;;;;;5.97;2.70;;;;;;;;;;2549984;23;20746;-89
2023/04/16 15:42:57;;;;;;;5.53;2.55;;;;;;;;;;2534351;23;20005;-90
2023/04/16 15:43:58;;;;;;;5.57;2.88;;;;;;;;;;2538600;23;20048;-91
2023/04/16 15:44:58;;;;;;;8.25;2.83;;;;;;;;;;2550689;23;20498;-91
2023/04/16 15:45:59;;;;;;;6.35;3.17;;;;;;;;;;2549108;23;20001;-90
2023/04/16 15:46:59;;;;;;;6.55;2.95;;;;;;;;;;2533564;23;20025;-90
2023/04/16 15:48:10;;;;;;;;;;;;;;;;;;;;;
2023/04/16 15:49:11;;;;;;;6.20;3.25;;;;;;;;;;2498586;23;20161;-89
2023/04/16 15:50:11;;;;;;;10.20;3.10;;;;;;;;;;1912164;23;8437599;-90
2023/04/16 15:51:30;;;;;;;9.65;3.47;;;;;;;;;;2549428;23;20012;-89
2023/04/16 15:52:31;;;;;;;5.30;2.28;;;;;;;;;;2535011;23;20416;-92
2023/04/16 15:54:06;;;;;;;4.70;2.80;;;;;;;;;;2527257;23;20200;-92
2023/04/16 15:55:17;;;;;;;9.02;3.28;;;;;;;;;;2562159;23;19988;-92
2023/04/16 15:56:17;;;;;;;;;;;;;;;;;;2527684;23;20106;-92
2023/04/16 16:33:34;;;;;;;6.68;3.42;;;;;;;;;;2539372;22;20159;-91
2023/04/16 16:34:34;;;;;;;8.88;3.60;;;;;;;;;;2538788;23;20018;-91
2023/04/16 16:35:36;;;;;;;7.97;3.60;;;;;;;;;;2537755;23;19994;-92
2023/04/16 16:36:36;;;;;;;7.38;2.90;;;;;;;;;;2537651;23;20394;-93
2023/04/16 16:37:41;;;;;;;7.80;4.10;;;;;;;;;;2534191;23;20309;-90
2023/04/16 16:38:41;;;;;;;6.85;3.55;;;;;;;;;;2520902;23;19995;-91
2023/04/16 16:39:42;;;;;;;8.65;3.72;;;;;;;;;;2520787;23;20029;-89
2023/04/16 16:40:42;;;;;;;7.95;3.63;;;;;;;;;;2510807;23;20020;-89
2023/04/16 16:41:43;;;;;;;7.60;4.35;;;;;;;;;;2525116;23;20001;-90
2023/04/16 16:42:44;;;;;;;6.43;3.78;;;;;;;;;;2537681;23;20002;-89
2023/04/16 16:43:46;;;;;;;6.05;2.95;;;;;;;;;;2538008;23;20108;-88
2023/04/16 16:44:47;;;;;;;6.53;3.60;;;;;;;;;;2086022;23;10337429;-89
2023/04/16 16:45:48;;;;;;;8.35;4.13;;;;;;;;;;2521948;23;20069;-88
2023/04/16 16:46:49;;;;;;;10.23;4.10;;;;;;;;;;2538017;23;20029;-92
2023/04/16 16:47:49;;;;;;;7.68;3.83;;;;;;;;;;2523754;23;19995;-91
2023/04/16 16:48:50;;;;;;;11.15;5.28;;;;;;;;;;2512905;23;19999;-90
2023/04/16 16:49:53;;;;;;;9.57;4.50;;;;;;;;;;2509745;23;20072;-89
2023/04/16 16:50:53;;;;;;;7.97;4.55;;;;;;;;;;2526005;23;20002;-92
2023/04/16 16:51:54;;;;;;;7.80;4.80;;;;;;;;;;2538223;23;20065;-90
2023/04/16 16:52:54;;;;;;;7.68;4.35;;;;;;;;;;2538237;23;20068;-90
2023/04/16 16:53:55;;;;;;;10.60;5.13;;;;;;;;;;2525295;23;20427;-90
2023/04/16 16:54:55;;;;;;;8.98;4.55;;;;;;;;;;2519766;23;20656;-90
2023/04/16 16:55:56;;;;;;;10.40;5.63;;;;;;;;;;2520021;23;20010;-90
2023/04/16 16:56:56;;;;;;;9.75;4.43;;;;;;;;;;2524170;23;20066;-89
2023/04/16 16:57:57;;;;;;;11.70;5.22;;;;;;;;;;2537087;23;20072;-90
2023/04/16 16:58:57;;;;;;;12.13;5.35;;;;;;;;;;2537482;23;20017;-91
2023/04/16 16:59:58;;;;;;;9.70;5.15;;;;;;;;;;2521120;23;20061;-91
2023/04/16 17:00:58;;;;;;;10.13;4.43;;;;;;;;;;2508693;23;20022;-90
2023/04/16 17:01:59;;;;;;;9.65;4.65;;;;;;;;;;2078523;23;10251865;-91
2023/04/16 17:02:59;;;;;;;10.32;4.65;;;;;;;;;;2509221;23;20626;-91
2023/04/16 17:04:00;;;;;;;12.35;5.03;;;;;;;;;;2522150;23;20029;-90
2023/04/16 17:05:00;;;;;;;10.50;4.50;;;;;;;;;;2520809;23;20471;-90
2023/04/16 17:06:01;;;;;;;9.45;5.70;;;;;;;;;;2508459;23;20015;-89
2023/04/16 17:07:01;;;;;;;6.93;4.00;;;;;;;;;;2524093;23;19998;-90
2023/04/16 17:08:01;;;;;;;8.07;4.38;;;;;;;;;;2536672;23;19994;-89
2023/04/16 17:09:02;;;;;;;6.88;3.72;;;;;;;;;;2519743;23;20077;-91
2023/04/16 17:11:22;;;;;;;10.18;4.90;;;;;;;;;;2544011;23;20600;-89
2023/04/16 17:12:28;;;;;;;9.73;5.82;;;;;;;;;;2550220;23;20065;-92
2023/04/16 17:13:31;;;;;;;10.05;4.82;;;;;;;;;;2550645;23;20065;-90
2023/04/16 17:14:32;;;;;;;10.90;5.28;;;;;;;;;;2549375;23;20312;-90
2023/04/16 17:15:32;;;;;;;7.80;4.45;;;;;;;;;;2531634;23;20001;-91
2023/04/16 17:16:33;;;;;;;14.48;5.55;;;;;;;;;;2532413;23;20016;-91
2023/04/16 17:17:39;;;;;;;10.05;4.47;;;;;;;;;;2548467;23;20017;-91
2023/04/16 17:18:39;;;;;;;12.23;4.90;;;;;;;;;;2549416;23;20001;-91
2023/04/16 17:19:41;;;;;;;8.15;4.40;;;;;;;;;;2109748;23;10250984;-90
2023/04/16 17:20:41;;;;;;;10.80;5.80;;;;;;;;;;2549321;23;19993;-90
2023/04/16 17:21:42;;;;;;;8.38;4.25;;;;;;;;;;2549791;23;20404;-90
2023/04/16 17:22:42;;;;;;;7.97;4.25;;;;;;;;;;2532285;23;20091;-90
2023/04/16 17:23:43;;;;;;;8.50;5.00;;;;;;;;;;2536259;23;20068;-90
2023/04/16 17:24:43;;;;;;;9.57;5.22;;;;;;;;;;2552436;23;20001;-90
2023/04/16 17:25:44;;;;;;;11.13;4.88;;;;;;;;;;2539407;23;20050;-88
2023/04/16 17:26:45;;;;;;;9.20;4.20;;;;;;;;;;2542787;23;20013;-89
2023/04/16 17:27:45;;;;;;;8.35;4.68;;;;;;;;;;2531675;23;20002;-89
2023/04/16 17:28:45;;;;;;;9.48;4.30;;;;;;;;;;2536299;23;20006;-91
2023/04/16 17:29:46;;;;;;;8.13;4.55;;;;;;;;;;2543724;23;20045;-91
2023/04/16 17:30:50;;;;;;;7.47;5.07;;;;;;;;;;2547491;23;20170;-91
2023/04/16 17:31:52;;;;;;;11.13;5.88;;;;;;;;;;2548426;23;20001;-90
2023/04/16 17:32:52;;;;;;;8.95;4.90;;;;;;;;;;2531481;23;20089;-89
2023/04/16 17:33:53;;;;;;;7.05;5.22;;;;;;;;;;2531461;23;20343;-88
2023/04/16 17:34:56;;;;;;;8.93;4.68;;;;;;;;;;2531599;23;20005;-91
2023/04/16 17:35:56;;;;;;;11.68;6.22;;;;;;;;;;2536556;23;20061;-90
2023/04/16 17:36:57;;;;;;;9.80;5.38;;;;;;;;;;2532359;23;20383;-91
2023/04/16 17:37:57;;;;;;;13.77;6.88;;;;;;;;;;2536312;23;20017;-90
2023/04/16 17:38:58;;;;;;;21.80;16.73;;;;;;;;;;2532671;23;20020;-89
2023/04/16 17:39:58;;;;;;;14.05;10.40;;;;;;;;;;2520036;23;20021;-90
2023/04/16 17:40:59;;;;;;;13.57;8.45;;;;;;;;;;2531459;23;20092;-89
2023/04/16 17:42:01;;;;;;;13.18;8.23;;;;;;;;;;2543211;23;20040;-90
2023/04/16 17:43:02;;;;;;;12.93;6.72;;;;;;;;;;2547721;23;19997;-90
2023/04/16 17:44:02;;;;;;;10.05;5.68;;;;;;;;;;2549161;23;20106;-89
2023/04/16 17:45:12;;;;;;;9.25;5.20;;;;;;;;;;2532124;23;20363;-89
2023/04/16 17:46:12;;;;;;;8.45;5.38;;;;;;;;;;2533865;23;19998;-90
2023/04/16 17:47:13;;;;;;;9.52;5.03;;;;;;;;;;2548447;23;20012;-89
2023/04/16 17:48:13;;;;;;;9.00;4.88;;;;;;;;;;2549388;23;19997;-89
2023/04/16 17:49:14;;;;;;;10.27;5.03;;;;;;;;;;2543960;23;20092;-89
2023/04/16 17:50:17;;;;;;;8.95;5.68;;;;;;;;;;2547492;23;20032;-90
2023/04/16 17:51:17;;;;;;;10.70;5.10;;;;;;;;;;2548978;23;20013;-89
2023/04/16 17:52:20;;;;;;;9.18;5.15;;;;;;;;;;2549037;23;19993;-88
2023/04/16 17:53:20;;;;;;;9.65;6.00;;;;;;;;;;2531872;23;20010;-89
2023/04/16 17:54:21;;;;;;;7.30;5.00;;;;;;;;;;2530770;23;20032;-88
2023/04/16 17:55:21;;;;;;;7.65;5.10;;;;;;;;;;2519748;23;19998;-88
2023/04/16 17:56:22;;;;;;;10.10;5.10;;;;;;;;;;2092357;23;10401627;-88
2023/04/16 17:57:22;;;;;;;9.15;5.07;;;;;;;;;;2548922;23;20111;-88
2023/04/16 17:58:25;;;;;;;9.45;5.35;;;;;;;;;;2531526;23;20490;-88
2023/04/16 17:59:26;;;;;;;8.48;5.15;;;;;;;;;;2520131;23;20073;-89
2023/04/16 18:00:26;;;;;;;14.00;5.95;;;;;;;;;;2523577;23;20109;-89
2023/04/16 18:01:26;;;;;;;9.90;5.75;;;;;;;;;;2532110;23;19994;-89
2023/04/16 18:02:27;;;;;;;12.00;5.03;;;;;;;;;;2532122;23;19994;-89
2023/04/16 18:03:28;;;;;;;13.57;6.82;;;;;;;;;;2535772;23;20021;-90
2023/04/16 18:04:28;;;;;;;13.32;6.63;;;;;;;;;;2548778;23;20052;-90
2023/04/16 18:05:29;;;;;;;10.35;6.82;;;;;;;;;;2549267;23;19993;-90
2023/04/16 18:06:30;;;;;;;12.13;6.60;;;;;;;;;;2530865;23;19998;-90
2023/04/16 18:07:31;;;;;;;10.95;6.50;;;;;;;;;;2534877;23;19990;-89
2023/04/16 18:08:33;;;;;;;11.98;7.07;;;;;;;;;;2547926;23;19993;-90
2023/04/16 18:09:34;;;;;;;11.68;7.15;;;;;;;;;;2543857;23;19994;-89
2023/04/16 18:10:35;;;;;;;10.20;5.85;;;;;;;;;;2548012;23;20027;-90
2023/04/16 18:11:35;;;;;;;10.18;6.38;;;;;;;;;;2532640;23;20426;-90
2023/04/16 18:12:36;;;;;;;13.30;6.63;;;;;;;;;;2531355;23;20006;-89
2023/04/16 18:13:36;;;;;;;12.32;6.47;;;;;;;;;;2547918;23;20023;-90
2023/04/16 18:14:39;;;;;;;10.93;6.80;;;;;;;;;;2532133;23;19990;-90
2023/04/16 18:15:40;;;;;;;11.75;6.18;;;;;;;;;;2531956;23;19994;-88
2023/04/16 18:16:41;;;;;;;8.77;5.65;;;;;;;;;;2548627;23;20007;-90
2023/04/16 18:17:41;;;;;;;8.15;5.25;;;;;;;;;;2534456;23;20357;-90
2023/04/16 18:18:43;;;;;;;12.25;6.47;;;;;;;;;;2545183;23;19997;-89
2023/04/16 18:19:43;;;;;;;8.80;6.07;;;;;;;;;;2558873;23;20001;-90
2023/04/16 18:20:44;;;;;;;10.40;5.50;;;;;;;;;;2533491;23;20025;-88
2023/04/16 18:21:44;;;;;;;12.57;6.15;;;;;;;;;;2536992;23;20028;-89
2023/04/16 18:22:48;;;;;;;11.98;6.40;;;;;;;;;;2550628;23;20088;-91
2023/04/16 18:23:49;;;;;;;10.55;5.55;;;;;;;;;;2500096;23;20032;-90
2023/04/16 18:24:53;;;;;;;10.30;5.50;;;;;;;;;;2520911;23;20085;-89
2023/04/16 18:25:56;;;;;;;13.82;6.00;;;;;;;;;;2525526;23;20081;-89
2023/04/16 18:26:56;;;;;;;11.60;5.40;;;;;;;;;;2526056;23;20005;-89
2023/04/16 18:27:57;;;;;;;11.73;5.63;;;;;;;;;;2538244;23;19993;-91
2023/04/16 18:28:58;;;;;;;10.90;5.88;;;;;;;;;;2537629;23;19994;-88
2023/04/16 18:29:59;;;;;;;10.85;5.60;;;;;;;;;;2522034;23;20098;-90
2023/04/16 18:31:08;;;;;;;6.93;5.50;;;;;;;;;;2511271;23;20086;-91
2023/04/16 18:32:09;;;;;;;14.05;6.65;;;;;;;;;;2537250;23;20006;-89
2023/04/16 18:33:17;;;;;;;8.70;6.30;;;;;;;;;;2548580;23;20051;-90
2023/04/16 18:34:28;;;;;;;9.88;5.82;;;;;;;;;;2543685;23;20058;-89
2023/04/16 18:35:28;;;;;;;11.05;5.80;;;;;;;;;;2540552;23;20053;-90
2023/04/16 18:36:30;;;;;;;10.43;6.22;;;;;;;;;;2529119;23;20057;-91
2023/04/16 18:37:30;;;;;;;12.43;6.28;;;;;;;;;;2540306;23;20006;-88
2023/04/16 18:38:33;;;;;;;9.85;6.10;;;;;;;;;;2523498;23;20792;-90
2023/04/16 18:39:34;;;;;;;10.32;6.30;;;;;;;;;;2508718;23;20341;-89
2023/04/16 18:40:35;;;;;;;9.98;6.35;;;;;;;;;;2508318;23;19995;-90
2023/04/16 18:41:36;;;;;;;10.00;6.32;;;;;;;;;;2524137;23;19994;-89
2023/04/16 18:42:36;;;;;;;11.57;6.60;;;;;;;;;;2536917;23;20454;-90
2023/04/16 18:43:39;;;;;;;12.23;6.30;;;;;;;;;;2520004;23;19995;-91
2023/04/16 18:44:39;;;;;;;10.85;6.45;;;;;;;;;;2508442;23;19991;-90
2023/04/16 18:45:40;;;;;;;14.82;7.43;;;;;;;;;;2508341;23;20002;-90
2023/04/16 18:46:40;;;;;;;13.10;8.07;;;;;;;;;;2525566;23;19994;-90
2023/04/16 18:47:42;;;;;;;14.77;6.97;;;;;;;;;;2540907;23;19994;-91
2023/04/16 18:48:45;;;;;;;14.05;7.13;;;;;;;;;;2522778;23;19996;-91
2023/04/16 18:49:46;;;;;;;13.75;7.88;;;;;;;;;;2533293;23;19993;-92
2023/04/16 18:50:46;;;;;;;14.43;7.03;;;;;;;;;;2548248;23;20065;-91
2023/04/16 18:51:47;;;;;;;17.45;7.22;;;;;;;;;;2543350;23;20040;-91
2023/04/16 18:52:48;;;;;;;10.43;6.53;;;;;;;;;;2530576;23;20068;-92
2023/04/16 18:54:40;;;;;;;10.82;6.80;;;;;;;;;;2505736;23;20003;-91
2023/04/16 18:55:41;;;;;;;10.52;6.90;;;;;;;;;;2493743;23;19994;-90
2023/04/16 19:06:53;;;;;;;13.77;6.20;;;;;;;;;;2514136;23;20010;-90
2023/04/16 19:07:54;;;;;;;10.50;6.28;;;;;;;;;;2512578;23;20011;-90
2023/04/16 19:18:23;;;;;;;13.02;6.38;;;;;;;;;;2574206;22;20039;-89
2023/04/16 19:19:24;;;;;;;8.68;5.50;;;;;;;;;;2564676;23;20025;-93
2023/04/16 19:20:30;;;;;;;9.70;5.97;;;;;;;;;;2575880;22;20469;-90
2023/04/16 19:21:34;;;;;;;10.38;5.93;;;;;;;;;;2578720;23;19997;-92
2023/04/16 19:22:37;;;;;;;12.05;5.20;;;;;;;;;;2565043;23;20004;-93
2023/04/16 19:23:37;;;;;;;15.48;6.65;;;;;;;;;;2574540;23;20019;-92
2023/04/16 19:24:38;;;;;;;11.18;6.22;;;;;;;;;;2585662;23;19999;-91
2023/04/16 19:29:31;;;;;;;10.57;5.32;;;;;;;;;;2526049;23;20092;-92
2023/04/16 19:30:38;;;;;;;11.80;7.05;;;;;;;;;;2549473;23;20014;-93
2023/04/16 19:32:24;;;;;;;12.40;5.97;;;;;;;;;;2562981;23;20007;-91
2023/04/16 19:33:24;;;;;;;15.90;7.28;;;;;;;;;;2570339;23;20004;-92
2023/04/16 19:49:04;;;;;;;15.90;7.78;;;;;;;;;;2531917;23;20001;-91
2023/04/16 19:51:07;;;;;;;;;;;;;;;;;;;;;
2023/04/16 20:19:59;;;;;;;10.15;5.95;;;;;;;;;;2566624;22;20469;-91
2023/04/16 20:21:25;;;;;;;9.07;6.03;;;;;;;;;;2563055;23;20021;-93
2023/04/16 20:22:57;;;;;;;13.32;7.13;;;;;;;;;;2569198;23;20005;-91
2023/04/16 20:24:02;;;;;;;14.52;7.28;;;;;;;;;;2548249;23;20002;-91
2023/04/16 20:25:04;;;;;;;7.93;6.47;;;;;;;;;;2546567;23;20002;-90
2023/04/16 20:26:22;;;;;;;10.32;6.97;;;;;;;;;;2551964;23;20047;-91
2023/04/16 20:27:23;;;;;;;9.02;6.18;;;;;;;;;;2552197;23;20002;-92
2023/04/16 20:29:07;;;;;;;10.85;6.88;;;;;;;;;;2129904;27;20170;-90
2023/04/16 20:30:07;;;;;;;11.23;6.75;;;;;;;;;;2121111;28;20031;-91
2023/04/16 20:31:08;;;;;;;13.75;6.63;;;;;;;;;;2112082;28;20100;-91
2023/04/16 20:32:08;;;;;;;10.52;6.45;;;;;;;;;;2103901;28;20114;-92
2023/04/16 20:33:10;;;;;;;12.52;6.25;;;;;;;;;;2114590;28;20130;-91
2023/04/16 20:34:10;;;;;;;8.65;5.95;;;;;;;;;;2116696;28;20383;-91
2023/04/16 20:35:11;;;;;;;9.07;6.38;;;;;;;;;;2106525;28;20060;-91
2023/04/16 20:36:12;;;;;;;10.68;5.90;;;;;;;;;;2104029;28;20569;-91
2023/04/16 20:37:12;;;;;;;7.95;5.75;;;;;;;;;;2112948;28;20024;-91
2023/04/16 20:38:12;;;;;;;11.23;5.90;;;;;;;;;;2121279;28;20554;-91
2023/04/16 20:39:13;;;;;;;10.63;5.85;;;;;;;;;;2120730;28;20023;-91
2023/04/16 20:40:15;;;;;;;9.10;5.60;;;;;;;;;;2112686;28;20555;-92
2023/04/16 20:41:23;;;;;;;9.93;6.30;;;;;;;;;;2112928;28;20020;-91
2023/04/16 20:42:25;;;;;;;11.85;6.50;;;;;;;;;;2114013;28;20100;-93
2023/04/16 20:43:28;;;;;;;10.98;5.82;;;;;;;;;;2112769;28;20141;-92
2023/04/16 20:44:38;;;;;;;10.32;6.28;;;;;;;;;;2112951;28;20027;-93
2023/04/16 20:45:39;;;;;;;11.35;7.03;;;;;;;;;;2124034;27;20019;-92
2023/04/16 20:46:40;;;;;;;9.57;7.07;;;;;;;;;;2121040;28;20031;-91
2023/04/16 20:47:42;;;;;;;9.20;6.20;;;;;;;;;;2121077;28;20088;-92
2023/04/16 20:48:42;;;;;;;11.80;6.63;;;;;;;;;;2121346;27;20452;-92
2023/04/16 20:49:47;;;;;;;9.23;5.82;;;;;;;;;;2121755;27;20019;-91
2023/04/16 20:50:48;;;;;;;13.40;6.20;;;;;;;;;;2121640;27;20027;-92
2023/04/16 20:51:48;;;;;;;11.73;6.30;;;;;;;;;;2122320;27;20034;-92
2023/04/16 20:52:48;;;;;;;10.68;5.93;;;;;;;;;;2120924;28;20081;-92
2023/04/16 20:53:50;;;;;;;11.43;5.80;;;;;;;;;;2121010;28;20035;-91
2023/04/16 20:54:51;;;;;;;9.68;6.05;;;;;;;;;;2120908;28;20020;-92
2023/04/16 20:55:51;;;;;;;9.02;5.45;;;;;;;;;;2112394;28;20107;-92
2023/04/16 20:56:52;;;;;;;8.52;5.28;;;;;;;;;;2112352;28;20023;-91
2023/04/16 20:57:52;;;;;;;9.40;5.47;;;;;;;;;;2126233;28;20041;-90
2023/04/16 20:58:54;;;;;;;7.05;5.28;;;;;;;;;;2131636;27;20020;-92
2023/04/16 20:59:55;;;;;;;14.57;5.53;;;;;;;;;;2128870;27;20200;-92
2023/04/16 21:00:56;;;;;;;11.07;6.25;;;;;;;;;;2121588;27;20143;-91
2023/04/16 21:01:57;;;;;;;8.80;5.75;;;;;;;;;;2121758;27;20023;-91
2023/04/16 21:02:57;;;;;;;9.10;6.00;;;;;;;;;;2125991;28;20071;-90
2023/04/16 21:03:58;;;;;;;10.52;6.40;;;;;;;;;;2122116;28;20064;-90
2023/04/16 21:04:58;;;;;;;9.02;5.60;;;;;;;;;;2122786;28;20004;-91
2023/04/16 21:06:00;;;;;;;9.38;5.22;;;;;;;;;;2121914;28;20028;-90
2023/04/16 21:07:02;;;;;;;8.15;5.05;;;;;;;;;;2119528;28;20012;-90
2023/04/16 21:08:03;;;;;;;10.15;5.05;;;;;;;;;;2118956;28;20018;-89
2023/04/16 21:09:04;;;;;;;8.38;5.80;;;;;;;;;;2122675;28;20019;-90
2023/04/16 21:10:09;;;;;;;6.53;5.03;;;;;;;;;;2112895;28;20037;-89
2023/04/16 21:11:09;;;;;;;8.18;5.00;;;;;;;;;;2104627;28;20031;-90
2023/04/16 21:12:10;;;;;;;11.45;4.97;;;;;;;;;;2112736;28;20503;-89
2023/04/16 21:13:10;;;;;;;11.63;5.57;;;;;;;;;;2122327;28;20015;-92
2023/04/16 21:14:11;;;;;;;10.73;5.18;;;;;;;;;;2121815;28;20019;-91
2023/04/16 21:15:11;;;;;;;7.68;5.80;;;;;;;;;;2112158;28;20067;-90
2023/04/16 21:16:30;;;;;;;11.18;5.40;;;;;;;;;;2113257;28;20020;-91
2023/04/16 21:17:31;;;;;;;7.05;5.20;;;;;;;;;;2122413;28;20139;-91
2023/04/16 21:18:31;;;;;;;8.25;5.70;;;;;;;;;;2113326;28;20180;-92
2023/04/16 21:19:32;;;;;;;8.90;6.03;;;;;;;;;;2104689;28;20025;-92
2023/04/16 21:20:33;;;;;;;6.50;5.18;;;;;;;;;;2104767;28;20060;-90
2023/04/16 21:21:33;;;;;;;11.00;5.85;;;;;;;;;;2105992;28;20023;-91
2023/04/16 21:22:34;;;;;;;7.93;5.15;;;;;;;;;;2112402;28;20016;-92
2023/04/16 21:23:34;;;;;;;11.50;5.30;;;;;;;;;;2121316;28;20097;-92
2023/04/16 21:24:34;;;;;;;11.38;5.80;;;;;;;;;;2113216;28;20011;-91
2023/04/16 21:25:35;;;;;;;11.52;5.28;;;;;;;;;;2110653;28;20020;-91
2023/04/16 21:26:36;;;;;;;9.57;5.95;;;;;;;;;;2109038;28;20036;-92
2023/04/16 21:27:36;;;;;;;10.20;5.93;;;;;;;;;;2104923;28;20058;-91
2023/04/16 21:28:37;;;;;;;9.10;5.70;;;;;;;;;;2112598;28;20381;-92
2023/04/16 21:29:37;;;;;;;8.00;5.95;;;;;;;;;;2122024;28;20401;-91
2023/04/16 21:30:38;;;;;;;11.80;6.40;;;;;;;;;;2113198;28;20063;-92
2023/04/16 21:31:38;;;;;;;7.50;5.35;;;;;;;;;;2096342;28;20036;-91
2023/04/16 21:32:38;;;;;;;13.02;6.57;;;;;;;;;;2103909;28;20020;-91
2023/04/16 21:33:39;;;;;;;9.57;5.20;;;;;;;;;;2103859;28;20439;-91
2023/04/16 21:34:39;;;;;;;13.52;7.50;;;;;;;;;;2112325;28;20047;-90
2023/04/16 21:35:40;;;;;;;12.70;7.20;;;;;;;;;;2112241;28;20497;-91
2023/04/16 21:36:40;;;;;;;8.00;5.20;;;;;;;;;;2111717;28;20038;-91
2023/04/16 21:37:40;;;;;;;;;;;;;;;;;;2112166;28;20103;-91
2023/04/16 21:38:41;;;;;;;12.47;5.47;;;;;;;;;;2111991;28;20336;-90
2023/04/16 21:39:41;;;;;;;12.55;5.90;;;;;;;;;;2110237;28;20411;-90
2023/04/16 21:40:42;;;;;;;7.45;4.80;;;;;;;;;;2114830;28;20083;-88
2023/04/16 21:41:42;;;;;;;11.13;5.50;;;;;;;;;;2105942;28;20081;-90
2023/04/16 21:42:43;;;;;;;9.07;5.15;;;;;;;;;;2098285;28;20024;-91
2023/04/16 21:43:43;;;;;;;;;;;;;;;;;;2107252;28;20454;-90
2023/04/16 21:44:44;;;;;;;8.40;5.60;;;;;;;;;;2115771;28;19915;-90
2023/04/16 21:45:44;;;;;;;7.82;5.43;;;;;;;;;;2115154;28;20058;-89
2023/04/16 21:46:45;;;;;;;11.38;5.95;;;;;;;;;;2106037;28;20032;-89
2023/04/16 21:47:46;;;;;;;10.82;5.82;;;;;;;;;;2070447;28;20432;-90
2023/04/16 21:48:47;;;;;;;9.82;5.72;;;;;;;;;;2097128;28;20033;-90
2023/04/16 21:49:47;;;;;;;9.70;5.53;;;;;;;;;;2095139;28;20033;-89
2023/04/16 21:50:58;;;;;;;;;;;;;;;;;;1733651;28;10243413;-90
2023/04/16 21:52:01;;;;;;;9.20;5.72;;;;;;;;;;2088025;28;19908;-89
2023/04/16 21:53:01;;;;;;;10.05;6.32;;;;;;;;;;2081669;28;20032;-90
2023/04/16 21:54:02;;;;;;;9.75;6.20;;;;;;;;;;2081376;28;20522;-90
2023/04/16 21:55:03;;;;;;;12.95;6.85;;;;;;;;;;2081371;28;20015;-90
2023/04/16 21:56:04;;;;;;;11.63;6.00;;;;;;;;;;2081106;28;20036;-89
2023/04/16 21:57:06;;;;;;;11.13;6.15;;;;;;;;;;2081239;28;20021;-90
2023/04/16 21:58:06;;;;;;;9.13;5.75;;;;;;;;;;2081310;28;20053;-90
2023/04/16 21:59:07;;;;;;;9.70;5.35;;;;;;;;;;2089913;28;20032;-91
2023/04/16 22:00:12;;;;;;;13.32;5.90;;;;;;;;;;2081415;28;20028;-90
2023/04/16 22:01:12;;;;;;;9.32;5.43;;;;;;;;;;2081588;28;20079;-91
2023/04/16 22:02:13;;;;;;;11.00;5.90;;;;;;;;;;2082183;28;20061;-93
2023/04/16 22:03:15;;;;;;;11.30;6.95;;;;;;;;;;2073662;28;20478;-92
2023/04/16 22:04:16;;;;;;;12.88;6.07;;;;;;;;;;2081285;28;20033;-93
2023/04/16 22:05:18;;;;;;;11.80;6.57;;;;;;;;;;2081919;28;20031;-92
2023/04/16 22:06:19;;;;;;;8.45;5.85;;;;;;;;;;2073637;28;20073;-91
2023/04/16 22:07:19;;;;;;;10.80;5.85;;;;;;;;;;2081290;28;20036;-90
2023/04/16 22:08:20;;;;;;;7.90;5.22;;;;;;;;;;2081332;28;20480;-91
2023/04/16 22:09:23;;;;;;;11.88;5.85;;;;;;;;;;2090591;28;20013;-90
2023/04/16 22:10:24;;;;;;;11.32;6.03;;;;;;;;;;2090325;28;20040;-92
2023/04/16 22:11:24;;;;;;;8.23;5.22;;;;;;;;;;2081685;28;20026;-92
2023/04/16 22:12:25;;;;;;;;;;;;;;;;;;2081579;28;20025;-91
2023/04/16 22:13:26;;;;;;;7.60;5.77;;;;;;;;;;2081072;28;20403;-91
2023/04/16 22:14:28;;;;;;;9.70;5.28;;;;;;;;;;2081004;28;20029;-93
2023/04/16 22:15:29;;;;;;;10.30;5.43;;;;;;;;;;2081405;28;20492;-92
2023/04/16 22:16:32;;;;;;;10.38;6.10;;;;;;;;;;2081161;28;20030;-92
2023/04/16 22:17:33;;;;;;;15.77;6.05;;;;;;;;;;2089125;28;20586;-93
2023/04/16 22:18:34;;;;;;;10.55;5.18;;;;;;;;;;2089674;28;20024;-93
2023/04/16 22:19:38;;;;;;;10.43;5.90;;;;;;;;;;2081467;28;20025;-93
2023/04/16 22:20:38;;;;;;;14.63;7.45;;;;;;;;;;2082284;28;20345;-94
2023/04/16 22:21:39;;;;;;;14.65;7.55;;;;;;;;;;2089512;28;20068;-94
2023/04/16 22:22:40;;;;;;;12.20;6.38;;;;;;;;;;2089120;28;20571;-90
2023/04/16 22:23:41;;;;;;;11.27;6.40;;;;;;;;;;2081023;28;20543;-91
2023/04/16 22:24:41;;;;;;;10.32;6.43;;;;;;;;;;2066095;28;20042;-92
2023/04/16 22:25:42;;;;;;;13.63;7.25;;;;;;;;;;2081703;28;20025;-92
2023/04/16 22:26:42;;;;;;;19.17;9.10;;;;;;;;;;2081369;28;20104;-91
2023/04/16 22:27:45;;;;;;;40.92;17.75;;;;;;;;;;2073328;28;20026;-93
2023/04/16 22:28:46;;;;;;;27.65;14.25;;;;;;;;;;2081399;28;20032;-92
2023/04/16 22:29:46;;;;;;;16.85;8.38;;;;;;;;;;2089337;28;20033;-93
2023/04/16 22:30:47;;;;;;;12.50;7.22;;;;;;;;;;2089532;28;20066;-92
2023/04/16 22:31:49;;;;;;;13.35;6.43;;;;;;;;;;2089626;28;20028;-93
2023/04/16 22:32:50;;;;;;;11.85;6.97;;;;;;;;;;2090061;28;20158;-90
2023/04/16 22:33:50;;;;;;;11.77;6.57;;;;;;;;;;2080761;28;20510;-92
2023/04/16 22:34:51;;;;;;;12.65;6.82;;;;;;;;;;2072735;28;20049;-91
2023/04/16 22:35:51;;;;;;;15.55;9.70;;;;;;;;;;2080559;28;20037;-90
2023/04/16 22:36:52;;;;;;;18.38;10.68;;;;;;;;;;2089265;28;20021;-91
2023/04/16 22:37:52;;;;;;;17.13;10.07;;;;;;;;;;2075035;28;20025;-92
2023/04/16 22:38:53;;;;;;;23.63;10.93;;;;;;;;;;2072751;28;20076;-91
2023/04/16 22:39:53;;;;;;;18.77;9.60;;;;;;;;;;2072689;28;20516;-91
2023/04/16 22:40:54;;;;;;;19.60;10.18;;;;;;;;;;2072502;28;20553;-91
2023/04/16 22:41:56;;;;;;;16.30;9.20;;;;;;;;;;2064391;28;20558;-91
2023/04/16 22:42:57;;;;;;;19.48;9.52;;;;;;;;;;2072584;28;20068;-92
2023/04/16 22:43:57;;;;;;;18.58;9.57;;;;;;;;;;2080799;28;20617;-91
2023/04/16 22:44:58;;;;;;;15.93;9.52;;;;;;;;;;2077112;28;20026;-92
2023/04/16 22:46:05;;;;;;;16.85;8.43;;;;;;;;;;2073282;28;20579;-91
2023/04/16 22:47:05;;;;;;;14.20;7.88;;;;;;;;;;2069874;28;20474;-92
2023/04/16 22:48:06;;;;;;;14.02;6.90;;;;;;;;;;2064828;28;20033;-91
2023/04/16 22:49:06;;;;;;;12.25;7.13;;;;;;;;;;2065131;28;20106;-92
2023/04/16 22:50:08;;;;;;;13.27;7.43;;;;;;;;;;2073296;28;20024;-91
2023/04/16 22:51:09;;;;;;;13.57;6.93;;;;;;;;;;2072997;28;20025;-91
2023/04/16 22:52:10;;;;;;;14.80;6.75;;;;;;;;;;2071966;28;20078;-92
2023/04/16 22:53:10;;;;;;;;;;;;;;;;;;2073174;28;20438;-92
2023/04/16 22:54:13;;;;;;;11.03;6.73;;;;;;;;;;2072604;28;19960;-91
2023/04/16 22:55:13;;;;;;;10.05;6.28;;;;;;;;;;2064896;28;20033;-92
2023/04/16 22:56:16;;;;;;;13.35;6.60;;;;;;;;;;2072814;28;20135;-91
2023/04/16 22:57:19;;;;;;;14.63;7.03;;;;;;;;;;2072794;28;20030;-91
2023/04/16 22:58:20;;;;;;;13.48;7.28;;;;;;;;;;2073127;28;20085;-91
2023/04/16 22:59:21;;;;;;;16.33;8.20;;;;;;;;;;2072767;28;20428;-92
2023/04/16 23:00:22;;;;;;;17.27;7.03;;;;;;;;;;2072782;28;20340;-92
2023/04/16 23:01:22;;;;;;;11.25;6.80;;;;;;;;;;2072697;28;20539;-92
2023/04/16 23:02:23;;;;;;;;;;;;;;;;;;2073497;28;20108;-91
2023/04/16 23:03:24;;;;;;;11.43;6.80;;;;;;;;;;2073102;28;20281;-90
2023/04/16 23:04:25;;;;;;;12.45;6.88;;;;;;;;;;2064988;28;20132;-90
2023/04/16 23:05:25;;;;;;;12.82;7.07;;;;;;;;;;2064851;28;20030;-91
2023/04/16 23:06:26;;;;;;;14.07;7.15;;;;;;;;;;2072532;28;20117;-91
2023/04/16 23:07:26;;;;;;;;;;;;;;;;;;2072955;28;20481;-91
2023/04/16 23:08:26;;;;;;;9.50;5.93;;;;;;;;;;2072482;28;19920;-91
2023/04/16 23:09:27;;;;;;;9.75;6.03;;;;;;;;;;2072481;28;20036;-90
2023/04/16 23:10:27;;;;;;;10.68;5.68;;;;;;;;;;2072543;28;20061;-91
2023/04/16 23:11:28;;;;;;;9.38;5.60;;;;;;;;;;2089011;28;20084;-93
2023/04/16 23:12:28;;;;;;;8.40;5.63;;;;;;;;;;2089480;28;20032;-90
2023/04/16 23:13:29;;;;;;;9.68;5.68;;;;;;;;;;2089894;28;20044;-91
2023/04/16 23:14:30;;;;;;;10.52;5.63;;;;;;;;;;2080687;28;20025;-90
2023/04/16 23:15:31;;;;;;;10.23;6.03;;;;;;;;;;2080967;28;20036;-91
2023/04/16 23:16:34;;;;;;;14.73;5.82;;;;;;;;;;2080813;28;20030;-91
2023/04/16 23:17:34;;;;;;;11.18;5.95;;;;;;;;;;2080584;28;20030;-91
2023/04/16 23:18:37;;;;;;;10.05;5.55;;;;;;;;;;2080699;28;20045;-93
2023/04/16 23:19:37;;;;;;;10.75;6.25;;;;;;;;;;2080748;28;20060;-92
2023/04/16 23:20:38;;;;;;;10.93;6.13;;;;;;;;;;2072691;28;20108;-91
2023/04/16 23:21:38;;;;;;;12.20;5.55;;;;;;;;;;2073332;28;20049;-92
2023/04/16 23:22:40;;;;;;;9.48;5.95;;;;;;;;;;2072398;28;20021;-91
2023/04/16 23:23:40;;;;;;;13.18;6.28;;;;;;;;;;2072450;28;20447;-92
2023/04/16 23:24:41;;;;;;;10.50;5.60;;;;;;;;;;2080745;28;20025;-91